createdAt,value
2023-03-31T00:01:45.856Z,77.61
2023-03-31T00:04:13.552Z,78.32
2023-03-31T00:06:42.246Z,78.30
2023-03-31T00:09:18.847Z,80.30
2023-03-31T00:11:46.210Z,80.45
2023-03-31T00:14:12.604Z,80.65
2023-03-31T00:16:39.452Z,81.08
2023-03-31T00:19:05.948Z,80.94
2023-03-31T00:21:36.929Z,80.85
2023-03-31T00:24:06.269Z,80.92
2023-03-31T00:26:34.134Z,80.89
2023-03-31T00:29:00.869Z,81.01
2023-03-31T00:31:28.861Z,80.50
2023-03-31T00:33:56.054Z,79.90
2023-03-31T00:36:27.363Z,79.73
2023-03-31T00:38:56.140Z,79.29
2023-03-31T00:41:22.687Z,79.25
2023-03-31T00:44:12.879Z,78.98
2023-03-31T00:46:44.395Z,78.59
2023-03-31T00:49:20.774Z,78.69
2023-03-31T00:51:49.648Z,79.23
2023-03-31T00:54:16.181Z,79.03
2023-03-31T00:56:48.010Z,78.65
2023-03-31T00:59:14.693Z,79.00
2023-03-31T01:01:44.289Z,79.64
2023-03-31T01:04:13.917Z,79.14
2023-03-31T01:06:50.350Z,79.22
2023-03-31T01:09:16.936Z,78.64
2023-03-31T01:11:46.200Z,78.53
2023-03-31T01:14:13.057Z,78.05
2023-03-31T01:16:39.874Z,78.11
2023-03-31T01:19:19.870Z,78.02
2023-03-31T01:22:17.141Z,77.63
2023-03-31T01:25:09.829Z,78.93
2023-03-31T01:28:07.307Z,77.88
2023-03-31T01:31:02.975Z,79.08
2023-03-31T01:33:38.294Z,78.92
2023-03-31T01:36:37.647Z,79.65
2023-03-31T01:39:11.641Z,79.62
2023-03-31T01:41:57.937Z,81.25
2023-03-31T01:44:45.761Z,83.30
2023-03-31T01:47:23.168Z,83.47
2023-03-31T01:50:00.248Z,85.97
2023-03-31T01:52:42.157Z,86.88
2023-03-31T01:55:16.289Z,89.26
2023-03-31T01:57:52.715Z,90.70
2023-03-31T02:00:33.266Z,91.18
2023-03-31T02:03:02.353Z,92.50
2023-03-31T02:05:43.969Z,93.25
2023-03-31T02:08:23.038Z,90.98
2023-03-31T02:10:52.015Z,92.12
2023-03-31T02:13:21.040Z,93.04
2023-03-31T02:15:54.681Z,93.01
2023-03-31T02:18:26.178Z,93.43
2023-03-31T02:20:54.491Z,93.05
2023-03-31T02:23:26.616Z,92.91
2023-03-31T02:25:59.551Z,93.14
2023-03-31T02:28:28.286Z,91.60
2023-03-31T02:31:12.869Z,91.96
2023-03-31T02:33:39.194Z,92.06
2023-03-31T02:36:06.419Z,91.44
2023-03-31T02:38:39.001Z,90.08
2023-03-31T02:41:06.466Z,89.38
2023-03-31T02:43:33.057Z,89.38
2023-03-31T02:45:59.499Z,88.52
2023-03-31T02:48:32.527Z,87.69
2023-03-31T02:51:08.618Z,87.17
2023-03-31T02:54:12.508Z,86.52
2023-03-31T02:56:47.947Z,86.09
2023-03-31T02:59:39.836Z,85.36
2023-03-31T03:02:37.370Z,84.75
2023-03-31T03:05:23.699Z,84.68
2023-03-31T03:08:07.129Z,84.56
2023-03-31T03:11:01.522Z,84.21
2023-03-31T03:13:46.453Z,84.31
2023-03-31T03:16:28.975Z,84.56
2023-03-31T03:19:00.294Z,84.65
2023-03-31T03:21:28.123Z,84.77
2023-03-31T03:23:54.769Z,84.07
2023-03-31T03:26:23.524Z,84.28
2023-03-31T03:28:51.140Z,84.06
2023-03-31T03:31:17.512Z,84.55
2023-03-31T03:33:43.912Z,84.55
2023-03-31T03:36:10.760Z,83.58
2023-03-31T03:38:37.204Z,83.72
2023-03-31T03:41:03.924Z,83.79
2023-03-31T03:43:30.589Z,83.44
2023-03-31T03:45:57.085Z,83.11
2023-03-31T03:48:23.628Z,82.84
2023-03-31T03:50:50.512Z,83.67
2023-03-31T03:53:16.914Z,82.95
2023-03-31T03:55:43.251Z,82.22
2023-03-31T03:58:09.696Z,82.53
2023-03-31T04:00:36.079Z,82.09
2023-03-31T04:03:02.798Z,81.30
2023-03-31T04:05:29.199Z,81.19
2023-03-31T04:07:55.625Z,81.87
2023-03-31T04:10:21.981Z,81.72
2023-03-31T04:12:48.407Z,80.80
2023-03-31T04:15:15.280Z,80.47
2023-03-31T04:17:41.758Z,79.71
2023-03-31T04:20:10.183Z,79.37
2023-03-31T04:22:40.814Z,79.38
2023-03-31T04:25:16.476Z,78.73
2023-03-31T04:27:54.538Z,78.58
2023-03-31T04:30:30.737Z,78.42
2023-03-31T04:32:59.938Z,77.73
2023-03-31T04:35:49.581Z,77.78
2023-03-31T04:38:18.759Z,76.58
2023-03-31T04:40:47.345Z,77.03
2023-03-31T04:43:14.492Z,76.72
2023-03-31T04:45:41.501Z,76.42
2023-03-31T04:48:08.512Z,77.13
2023-03-31T04:50:35.858Z,77.71
2023-03-31T04:53:03.578Z,78.21
2023-03-31T04:55:30.095Z,77.75
2023-03-31T04:57:56.727Z,77.48
2023-03-31T05:00:23.676Z,77.54
2023-03-31T05:02:51.455Z,76.51
2023-03-31T05:05:18.358Z,76.62
2023-03-31T05:07:44.739Z,76.04
2023-03-31T05:10:11.116Z,76.04
2023-03-31T05:12:37.921Z,75.51
2023-03-31T05:15:06.389Z,76.19
2023-03-31T05:17:34.210Z,76.85
2023-03-31T05:20:01.043Z,76.44
2023-03-31T05:22:27.741Z,77.61
2023-03-31T05:24:54.085Z,76.73
2023-03-31T05:27:21.840Z,76.01
2023-03-31T05:29:48.197Z,76.83
2023-03-31T05:32:14.537Z,76.99
2023-03-31T05:34:43.140Z,76.88
2023-03-31T05:37:09.551Z,76.14
2023-03-31T05:39:36.041Z,76.20
2023-03-31T05:42:03.415Z,78.27
2023-03-31T05:44:29.756Z,79.14
2023-03-31T05:46:56.362Z,80.47
2023-03-31T05:49:22.740Z,81.65
2023-03-31T05:51:49.083Z,81.01
2023-03-31T05:54:15.515Z,80.96
2023-03-31T05:56:41.848Z,80.86
2023-03-31T05:59:08.309Z,81.46
2023-03-31T06:01:50.782Z,79.95
2023-03-31T06:04:17.208Z,79.64
2023-03-31T06:06:44.318Z,79.42
2023-03-31T06:09:12.276Z,79.19
2023-03-31T06:11:38.891Z,79.17
2023-03-31T06:14:05.499Z,79.58
2023-03-31T06:16:31.923Z,79.67
2023-03-31T06:18:58.274Z,80.87
2023-03-31T06:21:24.599Z,81.72
2023-03-31T06:23:55.046Z,82.88
2023-03-31T06:26:22.820Z,84.33
2023-03-31T06:28:49.334Z,84.64
2023-03-31T06:31:19.919Z,83.83
2023-03-31T06:33:46.624Z,84.53
2023-03-31T06:36:15.578Z,84.47
2023-03-31T06:38:42.334Z,84.28
2023-03-31T06:41:11.730Z,83.61
2023-03-31T06:43:38.133Z,82.98
2023-03-31T06:46:05.721Z,82.26
2023-03-31T06:48:32.524Z,81.19
2023-03-31T06:51:00.734Z,81.15
2023-03-31T06:53:27.897Z,81.25
2023-03-31T06:55:54.343Z,79.63
2023-03-31T06:58:20.720Z,79.76
2023-03-31T07:00:47.280Z,79.02
2023-03-31T07:03:14.281Z,78.83
2023-03-31T07:05:40.992Z,78.74
2023-03-31T07:08:07.448Z,78.09
2023-03-31T07:10:33.791Z,77.64
2023-03-31T07:13:00.290Z,77.18
2023-03-31T07:15:28.209Z,75.68
2023-03-31T07:18:01.881Z,75.03
2023-03-31T07:20:29.863Z,74.59
2023-03-31T07:22:56.709Z,75.09
2023-03-31T07:25:23.186Z,73.96
2023-03-31T07:27:49.819Z,74.23
2023-03-31T07:30:18.828Z,74.09
2023-03-31T07:32:50.151Z,74.25
2023-03-31T07:35:17.873Z,73.11
2023-03-31T07:37:46.635Z,73.35
2023-03-31T07:40:31.323Z,73.05
2023-03-31T07:42:57.756Z,74.29
2023-03-31T07:45:26.212Z,73.27
2023-03-31T07:47:53.425Z,73.31
2023-03-31T07:50:20.399Z,72.73
2023-03-31T07:52:47.389Z,72.73
2023-03-31T07:55:14.618Z,72.29
2023-03-31T07:57:42.134Z,72.00
2023-03-31T08:00:12.161Z,71.86
2023-03-31T08:02:39.931Z,72.38
2023-03-31T08:05:07.534Z,71.27
2023-03-31T08:07:35.671Z,71.55
2023-03-31T08:10:04.515Z,71.03
2023-03-31T08:12:31.170Z,70.50
2023-03-31T08:14:57.586Z,69.49
2023-03-31T08:17:23.955Z,68.90
2023-03-31T08:19:51.603Z,69.20
2023-03-31T08:22:18.134Z,69.33
2023-03-31T08:24:44.490Z,69.26
2023-03-31T08:27:12.453Z,70.06
2023-03-31T08:29:39.186Z,68.63
2023-03-31T08:32:07.200Z,68.91
2023-03-31T08:34:33.832Z,68.05
2023-03-31T08:37:00.208Z,67.82
2023-03-31T08:39:27.253Z,67.18
2023-03-31T08:42:16.170Z,67.35
2023-03-31T08:44:57.461Z,67.59
2023-03-31T08:47:26.942Z,67.13
2023-03-31T08:50:02.966Z,66.86
2023-03-31T08:52:40.710Z,66.31
2023-03-31T08:55:12.188Z,65.81
2023-03-31T08:57:56.153Z,65.26
2023-03-31T09:00:22.789Z,66.05
2023-03-31T09:03:00.375Z,65.94
2023-03-31T09:06:12.851Z,65.91
2023-03-31T09:08:42.042Z,65.17
2023-03-31T09:11:14.510Z,63.28
2023-03-31T09:13:55.692Z,63.53
2023-03-31T09:16:50.434Z,61.82
2023-03-31T09:19:38.408Z,62.03
2023-03-31T09:23:00.389Z,61.97
2023-03-31T09:25:33.216Z,60.72
2023-03-31T09:28:08.398Z,62.91
2023-03-31T09:30:37.652Z,68.52
2023-03-31T09:33:22.657Z,71.84
2023-03-31T09:35:51.403Z,72.63
2023-03-31T09:38:22.601Z,72.76
2023-03-31T09:41:05.875Z,71.84
2023-03-31T09:43:38.209Z,69.58
2023-03-31T09:49:35.227Z,67.52
2023-03-31T09:52:14.322Z,67.10
2023-03-31T09:54:48.405Z,64.00
2023-03-31T09:57:31.231Z,63.32
2023-03-31T10:00:14.380Z,62.51
2023-03-31T10:02:49.776Z,62.34
2023-03-31T10:05:37.704Z,62.16
2023-03-31T10:08:30.455Z,60.66
2023-03-31T10:10:58.426Z,61.38
2023-03-31T10:13:49.823Z,61.36
2023-03-31T10:16:45.958Z,65.02
2023-03-31T10:19:28.815Z,69.40
2023-03-31T10:21:58.742Z,72.03
2023-03-31T10:24:27.563Z,74.16
2023-03-31T10:26:57.186Z,74.24
2023-03-31T10:29:32.595Z,75.28
2023-03-31T10:32:23.169Z,74.89
2023-03-31T10:34:50.691Z,72.96
2023-03-31T10:37:22.921Z,70.45
2023-03-31T10:40:09.400Z,69.44
2023-03-31T10:42:36.598Z,68.80
2023-03-31T10:45:37.465Z,71.10
2023-03-31T10:48:16.746Z,70.78
2023-03-31T10:53:27.655Z,67.62
2023-03-31T10:56:04.836Z,66.87
2023-03-31T10:58:54.962Z,66.44
2023-03-31T11:01:30.935Z,65.17
2023-03-31T11:04:29.300Z,65.15
2023-03-31T11:07:12.547Z,63.46
2023-03-31T11:10:09.988Z,60.32
2023-03-31T11:12:46.507Z,58.66
2023-03-31T11:15:25.583Z,58.03
2023-03-31T11:18:03.415Z,57.12
2023-03-31T11:20:50.562Z,56.74
2023-03-31T11:23:42.045Z,55.50
2023-03-31T11:26:29.197Z,55.43
2023-03-31T11:29:33.806Z,57.78
2023-03-31T11:32:24.372Z,58.11
2023-03-31T11:35:05.989Z,57.65
2023-03-31T11:37:41.614Z,55.93
2023-03-31T11:40:32.728Z,58.00
2023-03-31T11:43:04.984Z,59.32
2023-03-31T11:45:39.922Z,63.41
2023-03-31T11:48:16.670Z,68.96
2023-03-31T11:50:47.001Z,75.64
2023-03-31T11:53:20.925Z,79.12
2023-03-31T11:55:50.311Z,78.86
2023-03-31T11:59:02.890Z,78.93
2023-03-31T12:01:55.377Z,76.57
2023-03-31T12:04:38.334Z,74.75
2023-03-31T12:07:31.243Z,70.79
2023-03-31T12:10:12.819Z,69.33
2023-03-31T12:12:55.518Z,67.63
2023-03-31T12:15:40.056Z,64.75
2023-03-31T12:18:18.204Z,63.88
2023-03-31T12:20:56.421Z,60.26
2023-03-31T12:23:28.421Z,59.58
2023-03-31T12:26:08.716Z,58.89
2023-03-31T12:28:37.388Z,58.75
2023-03-31T12:31:07.073Z,59.57
2023-03-31T12:33:46.467Z,60.95
2023-03-31T12:36:34.628Z,62.81
2023-03-31T12:39:37.432Z,64.68
2023-03-31T12:42:31.656Z,64.09
2023-03-31T12:45:14.918Z,62.87
2023-03-31T12:47:49.910Z,59.67
2023-03-31T12:50:32.882Z,57.29
2023-03-31T12:53:08.946Z,56.85
2023-03-31T12:55:57.713Z,55.00
2023-03-31T12:58:31.752Z,54.17
2023-03-31T13:01:05.731Z,52.55
2023-03-31T13:03:40.479Z,51.42
2023-03-31T13:06:11.126Z,51.90
2023-03-31T13:09:17.663Z,52.89
2023-03-31T13:11:49.910Z,53.43
2023-03-31T13:14:31.591Z,53.86
2023-03-31T13:17:35.801Z,53.48
2023-03-31T13:20:32.207Z,53.29
2023-03-31T13:23:25.430Z,54.82
2023-03-31T13:25:53.449Z,54.02
2023-03-31T13:28:25.943Z,54.26
2023-03-31T13:30:54.984Z,55.40
2023-03-31T13:33:26.821Z,56.76
2023-03-31T13:36:06.201Z,56.24
2023-03-31T13:38:41.736Z,54.10
2023-03-31T13:41:37.637Z,54.84
2023-03-31T13:44:18.067Z,53.04
2023-03-31T13:47:18.097Z,53.75
2023-03-31T13:49:55.775Z,54.36
2023-03-31T13:52:44.406Z,53.87
2023-03-31T13:55:32.515Z,53.84
2023-03-31T13:58:24.971Z,53.23
2023-03-31T14:01:10.381Z,52.70
2023-03-31T14:04:03.023Z,52.12
2023-03-31T14:06:39.708Z,53.15
2023-03-31T14:09:13.585Z,53.46
2023-03-31T14:11:40.122Z,54.13
2023-03-31T14:14:17.297Z,53.92
2023-03-31T14:17:00.533Z,54.81
2023-03-31T14:19:42.080Z,63.15
2023-03-31T14:22:32.464Z,71.22
2023-03-31T14:25:13.835Z,75.95
2023-03-31T14:28:05.267Z,77.92
2023-03-31T14:30:53.881Z,79.23
2023-03-31T14:33:59.371Z,80.89
2023-03-31T14:36:37.990Z,79.79
2023-03-31T14:39:07.335Z,82.01
2023-03-31T14:41:33.771Z,83.02
2023-03-31T14:44:06.804Z,83.97
2023-03-31T14:46:38.372Z,86.12
2023-03-31T14:49:21.361Z,88.61
2023-03-31T14:51:48.688Z,89.42
2023-03-31T14:54:20.206Z,89.27
2023-03-31T14:56:51.031Z,88.68
2023-03-31T14:59:23.046Z,88.71
2023-03-31T15:01:50.839Z,86.91
2023-03-31T15:04:28.825Z,87.61
2023-03-31T15:07:03.097Z,85.51
2023-03-31T15:09:33.672Z,83.59
2023-03-31T15:12:03.727Z,82.17
2023-03-31T15:14:37.810Z,82.80
2023-03-31T15:17:04.250Z,81.79
2023-03-31T15:19:34.362Z,80.72
2023-03-31T15:22:18.608Z,81.01
2023-03-31T15:24:46.455Z,79.30
2023-03-31T15:27:38.631Z,79.56
2023-03-31T15:30:14.715Z,78.64
2023-03-31T15:32:41.844Z,77.38
2023-03-31T15:35:22.574Z,77.67
2023-03-31T15:37:52.179Z,76.29
2023-03-31T15:40:29.982Z,76.45
2023-03-31T15:45:50.991Z,74.88
2023-03-31T15:48:23.461Z,74.75
2023-03-31T15:50:51.724Z,75.63
2023-03-31T15:53:27.434Z,75.07
2023-03-31T15:55:56.792Z,76.08
2023-03-31T15:58:44.470Z,75.35
2023-03-31T16:01:15.689Z,76.01
2023-03-31T16:03:42.217Z,76.00
2023-03-31T16:06:19.247Z,75.36
2023-03-31T16:08:50.476Z,75.26
2023-03-31T16:11:26.647Z,73.95
2023-03-31T16:13:58.089Z,73.13
2023-03-31T16:16:27.114Z,72.77
2023-03-31T16:19:09.964Z,73.13
2023-03-31T16:21:42.930Z,74.29
2023-03-31T16:24:09.896Z,74.36
2023-03-31T16:26:37.486Z,73.05
2023-03-31T16:29:05.181Z,76.83
2023-03-31T16:31:37.633Z,76.62
2023-03-31T16:34:06.720Z,78.96
2023-03-31T16:36:33.893Z,79.96
2023-03-31T16:39:02.306Z,80.33
2023-03-31T16:41:29.622Z,80.13
2023-03-31T16:43:56.210Z,80.94
2023-03-31T16:46:23.204Z,80.42
2023-03-31T16:48:50.258Z,80.45
2023-03-31T16:51:17.164Z,81.95
2023-03-31T16:53:44.330Z,82.77
2023-03-31T16:56:11.866Z,84.19
2023-03-31T16:58:39.173Z,85.91
2023-03-31T17:01:07.297Z,84.61
2023-03-31T17:03:36.559Z,87.09
2023-03-31T17:06:09.014Z,88.18
2023-03-31T17:08:35.494Z,90.05
2023-03-31T17:11:05.221Z,90.12
2023-03-31T17:13:33.797Z,91.34
2023-03-31T17:18:46.657Z,91.36
2023-03-31T17:21:15.687Z,92.50
2023-03-31T17:23:42.879Z,92.58
2023-03-31T17:26:12.825Z,93.15
2023-03-31T17:28:40.049Z,91.99
2023-03-31T17:31:14.493Z,91.40
2023-03-31T17:33:41.726Z,91.60
2023-03-31T17:36:08.722Z,89.37
2023-03-31T17:38:35.614Z,90.05
2023-03-31T17:41:07.463Z,87.50
2023-03-31T17:43:35.388Z,87.58
2023-03-31T17:46:09.939Z,87.65
2023-03-31T17:48:39.246Z,87.26
2023-03-31T17:51:18.145Z,87.62
2023-03-31T17:53:46.777Z,87.70
2023-03-31T17:56:14.738Z,85.56
2023-03-31T17:58:41.496Z,83.66
2023-03-31T18:01:09.486Z,83.33
2023-03-31T18:03:36.651Z,83.73
2023-03-31T18:06:06.500Z,83.29
2023-03-31T18:08:34.672Z,82.14
2023-03-31T18:11:02.837Z,80.98
2023-03-31T18:13:29.231Z,80.98
2023-03-31T18:15:56.265Z,79.78
2023-03-31T18:18:25.943Z,80.19
2023-03-31T18:20:52.878Z,79.11
2023-03-31T18:23:19.698Z,79.22
2023-03-31T18:25:46.561Z,79.11
2023-03-31T18:28:14.409Z,79.75
2023-03-31T18:30:43.316Z,80.04
2023-03-31T18:33:11.678Z,79.53
2023-03-31T18:35:39.279Z,81.25
2023-03-31T18:38:06.432Z,82.41
2023-03-31T18:40:33.613Z,82.60
2023-03-31T18:43:00.652Z,81.74
2023-03-31T18:45:28.243Z,80.18
2023-03-31T18:47:55.068Z,78.68
2023-03-31T18:50:23.354Z,78.35
2023-03-31T18:52:54.502Z,78.94
2023-03-31T18:55:21.973Z,79.31
2023-03-31T18:57:48.679Z,79.86
2023-03-31T19:00:15.870Z,80.42
2023-03-31T19:02:42.502Z,79.44
2023-03-31T19:05:09.654Z,80.11
2023-03-31T19:07:36.347Z,79.83
2023-03-31T19:10:03.827Z,80.39
2023-03-31T19:12:30.532Z,79.10
2023-03-31T19:14:58.210Z,80.29
2023-03-31T19:17:24.898Z,79.34
2023-03-31T19:19:51.333Z,78.53
2023-03-31T19:22:17.743Z,78.17
2023-03-31T19:24:45.074Z,79.26
2023-03-31T19:27:12.622Z,79.34
2023-03-31T19:29:39.026Z,79.12
2023-03-31T19:32:06.065Z,79.65
2023-03-31T19:34:32.502Z,82.21
2023-03-31T19:36:58.860Z,81.42
2023-03-31T19:39:26.667Z,80.20
2023-03-31T19:41:53.043Z,79.19
2023-03-31T19:44:19.603Z,79.05
2023-03-31T19:46:48.080Z,78.15
2023-03-31T19:49:15.245Z,78.77
2023-03-31T19:51:41.793Z,78.51
2023-03-31T19:54:11.277Z,78.41
2023-03-31T19:56:38.079Z,79.49
2023-03-31T19:59:05.307Z,79.78
2023-03-31T20:01:32.392Z,79.43
2023-03-31T20:03:59.161Z,77.83
2023-03-31T20:06:28.494Z,78.55
2023-03-31T20:08:58.138Z,78.62
2023-03-31T20:11:26.274Z,78.54
2023-03-31T20:13:53.562Z,79.19
2023-03-31T20:16:23.564Z,79.23
2023-03-31T20:18:55.507Z,81.40
2023-03-31T20:21:24.654Z,82.63
2023-03-31T20:23:51.635Z,83.36
2023-03-31T20:26:20.497Z,84.18
2023-03-31T20:28:47.710Z,84.48
2023-03-31T20:31:20.149Z,82.17
2023-03-31T20:33:47.384Z,83.68
2023-03-31T20:36:16.962Z,82.91
2023-03-31T20:38:46.506Z,82.78
2023-03-31T20:41:14.501Z,82.03
2023-03-31T20:43:41.024Z,83.39
2023-03-31T20:46:08.683Z,81.66
2023-03-31T20:48:37.894Z,80.70
2023-03-31T20:51:07.082Z,80.84
2023-03-31T20:53:41.878Z,82.21
2023-03-31T20:56:18.330Z,81.56
2023-03-31T20:58:45.939Z,81.88
2023-03-31T21:01:18.201Z,83.58
2023-03-31T21:03:48.948Z,84.40
2023-03-31T21:06:16.278Z,84.63
2023-03-31T21:09:01.429Z,82.86
2023-03-31T21:11:28.248Z,83.22
2023-03-31T21:13:54.873Z,82.23
2023-03-31T21:16:22.916Z,80.31
2023-03-31T21:18:51.696Z,81.03
2023-03-31T21:21:19.349Z,81.28
2023-03-31T21:23:46.665Z,81.81
2023-03-31T21:26:15.558Z,81.55
2023-03-31T21:28:43.280Z,85.66
2023-03-31T21:31:16.931Z,84.97
2023-03-31T21:33:45.973Z,85.86
2023-03-31T21:36:17.956Z,85.80
2023-03-31T21:38:45.500Z,85.67
2023-03-31T21:41:17.584Z,87.83
2023-03-31T21:43:44.828Z,85.44
2023-03-31T21:46:27.269Z,84.72
2023-03-31T21:48:54.359Z,84.80
2023-03-31T21:51:22.206Z,84.42
2023-03-31T21:53:49.672Z,83.45
2023-03-31T21:56:16.495Z,85.99
2023-03-31T21:58:42.878Z,84.85
2023-03-31T22:01:09.356Z,85.44
2023-03-31T22:03:36.577Z,84.52
2023-03-31T22:06:06.793Z,84.63
2023-03-31T22:08:35.313Z,85.42
2023-03-31T22:11:01.728Z,85.98
2023-03-31T22:13:29.405Z,86.30
2023-03-31T22:15:56.380Z,85.58
2023-03-31T22:18:22.933Z,86.14
2023-03-31T22:20:49.894Z,86.06
2023-03-31T22:23:17.127Z,87.96
2023-03-31T22:25:43.756Z,88.90
2023-03-31T22:28:10.310Z,89.45
2023-03-31T22:30:36.889Z,90.00
2023-03-31T22:33:03.432Z,90.79
2023-03-31T22:35:29.808Z,92.91
2023-03-31T22:37:56.156Z,91.15
2023-03-31T22:40:23.773Z,91.87
2023-03-31T22:42:50.172Z,90.94
2023-03-31T22:45:16.731Z,91.43
2023-03-31T22:47:43.211Z,90.30
2023-03-31T22:50:12.174Z,90.10
2023-03-31T22:52:38.645Z,89.50
2023-03-31T22:55:06.099Z,89.50
2023-03-31T22:57:32.810Z,90.40
2023-03-31T22:59:59.275Z,89.50
2023-03-31T23:02:25.820Z,89.31
2023-03-31T23:04:52.218Z,90.46
2023-03-31T23:07:18.650Z,89.38
2023-03-31T23:09:45.331Z,89.87
2023-03-31T23:12:11.721Z,88.77
2023-03-31T23:14:38.205Z,88.69
2023-03-31T23:17:04.618Z,88.50
2023-03-31T23:19:31.873Z,90.44
2023-03-31T23:21:58.384Z,88.22
2023-03-31T23:24:26.021Z,88.55
2023-03-31T23:26:52.421Z,89.55
2023-03-31T23:29:18.854Z,89.82
2023-03-31T23:31:45.203Z,89.58
2023-03-31T23:34:13.811Z,88.74
2023-03-31T23:36:42.117Z,89.59
2023-03-31T23:39:08.568Z,90.52
2023-03-31T23:41:34.952Z,89.32
2023-03-31T23:44:01.700Z,88.61
2023-03-31T23:46:29.630Z,89.10
2023-03-31T23:48:56.260Z,89.87
2023-03-31T23:51:22.937Z,91.17
2023-03-31T23:53:50.062Z,92.12
2023-03-31T23:56:16.903Z,92.51
2023-03-31T23:58:44.920Z,92.54
